Portada
METAR-TAF:

METAR-TAF

Aeroports :

Elsenborn

Bütgenbach, Bèlgica

latitud: 50-28N, longitud: 006-11E, altitud: 564 m

Observació

L'informe es va fer fa 27 minuts, a les 23:25 UTC
Vent 7 kt del Nord-Oest
Temperatura 1°C
Humitat 93%
Pressió 1029 hPa
Visibilitat: 8000 m

METAR: EBLB 182325Z AUTO 32007KT 8000 OVC005/// 01/00 Q1029 YLO

Hora: 00:52 (23:52 UTC)


TAF: manca

Observacions i pronòstics meteorològics de més de 4000 aeroports (METAR i TAF).

Les estacions disponibles són els punts grocs i vermells al mapa.

Posi el ratolí al punt desitjat per veure el nom de l'estació.

Feu clic per veure les observacions i els pronòstics meteorològics.

Per canviar el mapa: feu clic els botons verds amb una creu de color negre per apropar; al botó verd amb un guió per allunyar la imatge; o en les fletxes verdes per a mapes adjacents.


METAR-TAF: